createdAt,value
2022-09-02T00:02:29.410Z,1.25
2022-09-02T00:04:57.902Z,0.80
2022-09-02T00:07:26.365Z,1.13
2022-09-02T00:09:54.881Z,0.95
2022-09-02T00:12:23.329Z,0.80
2022-09-02T00:14:51.696Z,1.10
2022-09-02T00:17:20.046Z,0.80
2022-09-02T00:19:50.974Z,0.80
2022-09-02T00:22:22.484Z,0.73
2022-09-02T00:24:50.896Z,0.80
2022-09-02T00:27:19.280Z,0.73
2022-09-02T00:29:48.533Z,1.00
2022-09-02T00:32:16.961Z,1.10
2022-09-02T00:34:45.732Z,0.90
2022-09-02T00:37:14.197Z,0.98
2022-09-02T00:39:42.854Z,1.13
2022-09-02T00:42:19.670Z,1.45
2022-09-02T00:47:17.834Z,1.63
2022-09-02T00:49:52.551Z,1.05
2022-09-02T00:52:29.988Z,0.90
2022-09-02T00:55:05.686Z,0.80
2022-09-02T00:57:39.527Z,1.10
2022-09-02T01:00:22.245Z,1.00
2022-09-02T01:02:56.925Z,0.90
2022-09-02T01:05:29.992Z,1.10
2022-09-02T01:07:59.261Z,0.90
2022-09-02T01:10:34.476Z,0.80
2022-09-02T01:13:07.619Z,1.88
2022-09-02T01:15:40.969Z,0.63
2022-09-02T01:18:13.800Z,1.35
2022-09-02T01:20:42.749Z,0.93
2022-09-02T01:23:11.949Z,0.90
2022-09-02T01:25:40.557Z,1.55
2022-09-02T01:28:11.533Z,0.80
2022-09-02T01:30:47.679Z,0.82
2022-09-02T01:33:17.549Z,0.70
2022-09-02T01:35:47.174Z,1.15
2022-09-02T01:38:16.067Z,0.82
2022-09-02T01:40:44.771Z,0.90
2022-09-02T01:43:21.437Z,1.05
2022-09-02T01:45:54.648Z,0.80
2022-09-02T01:48:25.585Z,1.00
2022-09-02T01:51:01.988Z,1.03
2022-09-02T01:53:30.941Z,0.80
2022-09-02T01:56:00.632Z,1.55
2022-09-02T01:58:32.355Z,1.05
2022-09-02T02:01:00.922Z,1.20
2022-09-02T02:03:30.834Z,0.90
2022-09-02T02:06:00.827Z,1.13
2022-09-02T02:08:30.432Z,0.95
2022-09-02T02:11:01.332Z,0.90
2022-09-02T02:13:31.288Z,1.10
2022-09-02T02:15:59.974Z,1.00
2022-09-02T02:18:29.863Z,1.05
2022-09-02T02:20:58.150Z,0.90
2022-09-02T02:23:26.688Z,1.33
2022-09-02T02:25:55.033Z,0.90
2022-09-02T02:28:23.353Z,1.30
2022-09-02T02:30:51.799Z,0.90
2022-09-02T02:33:30.485Z,1.30
2022-09-02T02:36:07.504Z,1.00
2022-09-02T02:38:38.016Z,0.98
2022-09-02T02:41:08.321Z,1.02
2022-09-02T02:43:37.665Z,1.10
2022-09-02T02:46:07.123Z,1.10
2022-09-02T02:48:36.619Z,0.90
2022-09-02T02:51:06.314Z,1.17
2022-09-02T02:53:37.005Z,1.00
2022-09-02T02:56:06.066Z,1.00
2022-09-02T02:58:34.789Z,1.20
2022-09-02T03:01:03.620Z,1.20
2022-09-02T03:03:32.633Z,1.17
2022-09-02T03:06:02.934Z,0.93
2022-09-02T03:08:32.090Z,1.20
2022-09-02T03:11:01.861Z,1.27
2022-09-02T03:13:32.912Z,1.17
2022-09-02T03:18:34.852Z,1.20
2022-09-02T03:21:08.241Z,1.17
2022-09-02T03:23:37.119Z,1.10
2022-09-02T03:26:11.123Z,1.17
2022-09-02T03:28:40.449Z,1.02
2022-09-02T03:31:18.611Z,1.00
2022-09-02T03:33:47.675Z,1.10
2022-09-02T03:36:32.433Z,1.10
2022-09-02T03:39:02.067Z,1.20
2022-09-02T03:41:31.246Z,1.00
2022-09-02T03:44:02.107Z,1.30
2022-09-02T03:46:31.587Z,1.40
2022-09-02T03:49:00.244Z,1.30
2022-09-02T03:51:28.990Z,2.60
2022-09-02T03:53:57.746Z,2.10
2022-09-02T03:56:27.360Z,1.20
2022-09-02T03:58:57.528Z,1.65
2022-09-02T04:01:29.083Z,1.30
2022-09-02T04:04:06.864Z,1.30
2022-09-02T04:06:37.664Z,1.40
2022-09-02T04:11:42.841Z,2.00
2022-09-02T04:14:13.843Z,1.50
2022-09-02T04:16:42.498Z,1.52
2022-09-02T04:19:11.088Z,1.85
2022-09-02T04:24:11.881Z,1.60
2022-09-02T04:26:45.083Z,1.77
2022-09-02T04:29:15.810Z,1.30
2022-09-02T04:31:45.799Z,1.63
2022-09-02T04:34:14.381Z,2.50
2022-09-02T04:36:43.953Z,2.13
2022-09-02T04:39:13.848Z,2.08
2022-09-02T04:41:42.626Z,1.67
2022-09-02T04:44:13.510Z,1.45
2022-09-02T04:46:45.565Z,1.65
2022-09-02T04:49:19.669Z,1.55
2022-09-02T04:51:50.706Z,1.33
2022-09-02T04:54:19.294Z,1.67
2022-09-02T04:56:50.907Z,1.30
2022-09-02T04:59:21.348Z,1.10
2022-09-02T05:04:41.671Z,1.52
2022-09-02T05:07:18.330Z,1.23
2022-09-02T05:09:50.416Z,1.85
2022-09-02T05:12:19.323Z,1.77
2022-09-02T05:14:53.913Z,1.33
2022-09-02T05:17:24.591Z,1.20
2022-09-02T05:19:53.386Z,1.50
2022-09-02T05:22:22.614Z,1.67
2022-09-02T05:24:51.434Z,1.52
2022-09-02T05:27:20.689Z,1.40
2022-09-02T05:29:50.982Z,1.35
2022-09-02T05:32:23.029Z,1.60
2022-09-02T05:34:54.218Z,1.20
2022-09-02T05:37:24.611Z,1.50
2022-09-02T05:39:53.227Z,1.33
2022-09-02T05:42:24.883Z,1.40
2022-09-02T05:44:53.952Z,1.95
2022-09-02T05:47:25.541Z,1.50
2022-09-02T05:49:54.894Z,1.33
2022-09-02T05:52:26.319Z,1.40
2022-09-02T05:54:56.960Z,1.50
2022-09-02T05:57:25.720Z,2.05
2022-09-02T06:00:08.537Z,1.50
2022-09-02T06:02:44.014Z,1.17
2022-09-02T06:05:27.546Z,1.33
2022-09-02T06:10:42.292Z,1.40
2022-09-02T06:13:15.765Z,1.40
2022-09-02T06:15:45.112Z,1.52
2022-09-02T06:18:15.932Z,1.40
2022-09-02T06:20:51.304Z,1.42
2022-09-02T06:23:20.741Z,1.45
2022-09-02T06:25:50.664Z,1.20
2022-09-02T06:28:23.044Z,1.40
2022-09-02T06:30:51.825Z,1.20
2022-09-02T06:33:25.482Z,1.33
2022-09-02T06:35:55.246Z,1.60
2022-09-02T06:38:24.139Z,1.65
2022-09-02T06:40:55.660Z,1.35
2022-09-02T06:43:37.645Z,1.27
2022-09-02T06:46:24.001Z,1.20
2022-09-02T06:48:56.095Z,1.63
2022-09-02T06:51:29.611Z,1.35
2022-09-02T06:54:01.586Z,1.73
2022-09-02T06:56:35.024Z,1.40
2022-09-02T06:59:05.087Z,1.40
2022-09-02T07:01:54.421Z,1.40
2022-09-02T07:04:43.224Z,1.27
2022-09-02T07:07:16.316Z,1.20
2022-09-02T07:09:58.718Z,1.20
2022-09-02T07:12:27.866Z,1.30
2022-09-02T07:15:05.190Z,1.30
2022-09-02T07:17:38.418Z,1.15
2022-09-02T07:20:11.607Z,1.30
2022-09-02T07:22:45.623Z,1.50
2022-09-02T07:25:18.725Z,1.42
2022-09-02T07:27:51.349Z,1.27
2022-09-02T07:30:20.618Z,1.42
2022-09-02T07:32:53.865Z,1.27
2022-09-02T07:35:25.122Z,1.30
2022-09-02T07:37:55.316Z,1.10
2022-09-02T07:40:24.598Z,1.33
2022-09-02T07:42:54.564Z,1.20
2022-09-02T07:45:24.668Z,1.40
2022-09-02T07:47:54.086Z,1.70
2022-09-02T07:50:27.261Z,1.67
2022-09-02T07:52:58.372Z,1.30
2022-09-02T07:55:31.173Z,1.52
2022-09-02T07:58:01.015Z,1.30
2022-09-02T08:00:32.230Z,1.40
2022-09-02T08:05:41.343Z,1.48
2022-09-02T08:08:09.733Z,1.30
2022-09-02T08:10:38.694Z,1.45
2022-09-02T08:13:07.083Z,1.20
2022-09-02T08:15:37.050Z,1.30
2022-09-02T08:18:06.886Z,1.48
2022-09-02T08:20:37.094Z,1.50
2022-09-02T08:23:12.415Z,1.27
2022-09-02T08:28:15.381Z,1.30
2022-09-02T08:30:43.698Z,1.20
2022-09-02T08:33:12.375Z,1.30
2022-09-02T08:35:40.890Z,1.45
2022-09-02T08:38:09.229Z,1.20
2022-09-02T08:40:42.050Z,1.45
2022-09-02T08:43:21.714Z,1.40
2022-09-02T08:45:51.851Z,1.60
2022-09-02T08:48:27.997Z,1.20
2022-09-02T08:51:03.456Z,1.40
2022-09-02T08:54:03.359Z,1.75
2022-09-02T08:56:32.353Z,1.33
2022-09-02T08:59:04.938Z,1.58
2022-09-02T09:01:47.630Z,1.70
2022-09-02T09:04:53.614Z,1.50
2022-09-02T09:07:33.004Z,1.70
2022-09-02T09:10:16.747Z,1.63
2022-09-02T09:13:20.435Z,1.50
2022-09-02T09:16:16.579Z,2.03
2022-09-02T09:18:55.813Z,1.50
2022-09-02T09:23:55.724Z,1.52
2022-09-02T09:26:31.048Z,1.35
2022-09-02T09:29:00.025Z,1.80
2022-09-02T09:31:31.460Z,1.90
2022-09-02T09:34:07.537Z,1.65
2022-09-02T09:36:42.226Z,1.67
2022-09-02T09:39:28.246Z,1.90
2022-09-02T09:42:12.381Z,1.80
2022-09-02T09:44:48.183Z,1.58
2022-09-02T09:47:25.774Z,1.50
2022-09-02T09:50:16.377Z,1.70
2022-09-02T09:52:45.461Z,1.80
2022-09-02T09:55:15.674Z,1.85
2022-09-02T09:57:51.448Z,1.80
2022-09-02T10:00:32.573Z,1.85
2022-09-02T10:03:04.581Z,2.00
2022-09-02T10:05:38.962Z,1.83
2022-09-02T10:08:16.570Z,2.20
2022-09-02T10:11:06.363Z,2.05
2022-09-02T10:13:37.004Z,1.60
2022-09-02T10:16:13.179Z,3.13
2022-09-02T10:18:54.915Z,2.17
2022-09-02T10:21:50.546Z,1.48
2022-09-02T10:24:36.430Z,1.80
2022-09-02T10:27:09.486Z,1.40
2022-09-02T10:29:56.143Z,2.03
2022-09-02T10:32:39.625Z,1.50
2022-09-02T10:35:15.032Z,1.42
2022-09-02T10:38:12.356Z,1.88
2022-09-02T10:40:52.865Z,1.50
2022-09-02T10:43:44.146Z,1.38
2022-09-02T10:46:18.459Z,1.58
2022-09-02T10:49:01.694Z,1.52
2022-09-02T10:51:43.832Z,1.42
2022-09-02T10:54:34.235Z,1.30
2022-09-02T10:57:12.860Z,1.30
2022-09-02T10:59:52.482Z,1.50
2022-09-02T11:02:22.731Z,1.20
2022-09-02T11:05:00.744Z,1.50
2022-09-02T11:07:37.813Z,1.42
2022-09-02T11:10:16.275Z,1.20
2022-09-02T11:12:54.960Z,1.33
2022-09-02T11:15:48.798Z,1.23
2022-09-02T11:18:21.592Z,1.42
2022-09-02T11:21:30.508Z,1.05
2022-09-02T11:24:10.299Z,1.27
2022-09-02T11:27:32.295Z,1.10
2022-09-02T11:30:13.611Z,1.30
2022-09-02T11:33:04.067Z,1.10
2022-09-02T11:35:38.770Z,1.20
2022-09-02T11:38:49.006Z,1.40
2022-09-02T11:41:35.828Z,1.33
2022-09-02T11:44:24.290Z,1.05
2022-09-02T11:47:25.306Z,1.10
2022-09-02T11:50:05.857Z,1.20
2022-09-02T11:55:14.021Z,0.90
2022-09-02T11:57:52.439Z,0.93
2022-09-02T12:00:38.864Z,1.10
2022-09-02T12:03:16.832Z,1.20
2022-09-02T12:06:19.302Z,1.13
2022-09-02T12:08:57.182Z,1.13
2022-09-02T12:11:42.190Z,1.10
2022-09-02T12:14:21.466Z,0.80
2022-09-02T12:17:07.583Z,1.10
2022-09-02T12:19:40.544Z,0.85
2022-09-02T12:22:15.700Z,1.02
2022-09-02T12:24:53.792Z,0.90
2022-09-02T12:27:27.330Z,1.05
2022-09-02T12:29:57.623Z,1.25
2022-09-02T12:32:45.330Z,1.13
2022-09-02T12:35:50.209Z,1.10
2022-09-02T12:38:25.600Z,1.10
2022-09-02T12:40:58.775Z,0.82
2022-09-02T12:43:33.484Z,0.95
2022-09-02T12:46:23.040Z,0.80
2022-09-02T12:49:05.739Z,1.03
2022-09-02T12:52:02.532Z,1.05
2022-09-02T12:54:39.875Z,0.90
2022-09-02T12:57:10.005Z,0.85
2022-09-02T12:59:41.369Z,0.88
2022-09-02T13:02:28.060Z,1.10
2022-09-02T13:05:19.861Z,0.90
2022-09-02T13:07:57.207Z,1.03
2022-09-02T13:10:58.342Z,0.98
2022-09-02T13:14:08.506Z,1.00
2022-09-02T13:17:19.064Z,0.82
2022-09-02T13:19:56.761Z,0.95
2022-09-02T13:22:31.103Z,0.82
2022-09-02T13:25:02.639Z,1.25
2022-09-02T13:28:04.968Z,0.80
2022-09-02T13:30:51.590Z,0.85
2022-09-02T13:33:20.074Z,0.80
2022-09-02T13:35:54.437Z,0.80
2022-09-02T13:38:25.400Z,0.63
2022-09-02T13:40:54.111Z,0.70
2022-09-02T13:43:27.118Z,1.25
2022-09-02T13:46:01.020Z,1.00
2022-09-02T13:48:33.078Z,0.80
2022-09-02T13:51:14.282Z,0.90
2022-09-02T13:54:21.538Z,0.70
2022-09-02T13:56:39.746Z,1.00
2022-09-02T13:59:08.079Z,0.80
2022-09-02T14:01:40.273Z,0.80
2022-09-02T14:04:15.675Z,0.80
2022-09-02T14:06:47.622Z,0.70
2022-09-02T14:09:27.235Z,1.05
2022-09-02T14:11:56.907Z,0.77
2022-09-02T14:14:26.137Z,0.60
2022-09-02T14:17:18.102Z,0.80
2022-09-02T14:19:46.733Z,0.80
2022-09-02T14:22:27.599Z,0.70
2022-09-02T14:24:56.837Z,0.70
2022-09-02T14:27:25.661Z,0.73
2022-09-02T14:29:58.329Z,1.10
2022-09-02T14:35:11.704Z,0.80
2022-09-02T14:37:54.089Z,0.68
2022-09-02T14:40:34.022Z,0.95
2022-09-02T14:43:03.491Z,0.65
2022-09-02T14:45:34.935Z,0.98
2022-09-02T14:48:13.716Z,1.20
2022-09-02T14:50:42.587Z,0.85
2022-09-02T14:53:19.826Z,0.80
2022-09-02T14:55:56.954Z,0.80
2022-09-02T14:58:28.161Z,1.38
2022-09-02T15:01:00.054Z,1.05
2022-09-02T15:03:30.632Z,0.80
2022-09-02T15:08:27.905Z,1.00
2022-09-02T15:10:59.874Z,0.70
2022-09-02T15:13:37.251Z,0.98
2022-09-02T15:16:05.861Z,0.80
2022-09-02T15:18:34.200Z,0.73
2022-09-02T15:21:03.346Z,1.00
2022-09-02T15:23:34.802Z,1.00
2022-09-02T15:26:05.234Z,0.80
2022-09-02T15:28:34.033Z,0.60
2022-09-02T15:31:02.764Z,1.00
2022-09-02T15:33:32.357Z,1.10
2022-09-02T15:36:09.910Z,0.90
2022-09-02T15:38:40.963Z,0.60
2022-09-02T15:41:12.860Z,0.80
2022-09-02T15:43:41.911Z,0.70
2022-09-02T15:46:18.945Z,0.80
2022-09-02T15:48:47.981Z,0.80
2022-09-02T15:51:19.020Z,1.10
2022-09-02T15:53:49.211Z,0.77
2022-09-02T15:56:19.788Z,0.95
2022-09-02T15:58:58.000Z,1.00
2022-09-02T16:01:32.170Z,1.50
2022-09-02T16:04:06.135Z,0.60
2022-09-02T16:06:36.449Z,0.93
2022-09-02T16:09:08.992Z,0.80
2022-09-02T16:11:42.107Z,0.93
2022-09-02T16:14:10.874Z,0.88
2022-09-02T16:16:39.607Z,1.00
2022-09-02T16:19:09.086Z,1.00
2022-09-02T16:21:41.412Z,0.98
2022-09-02T16:24:12.815Z,1.85
2022-09-02T16:26:42.277Z,0.90
2022-09-02T16:29:19.557Z,0.88
2022-09-02T16:32:02.238Z,1.00
2022-09-02T16:34:38.102Z,1.10
2022-09-02T16:37:07.545Z,0.90
2022-09-02T16:39:36.256Z,1.00
2022-09-02T16:42:04.995Z,1.08
2022-09-02T16:44:34.224Z,1.10
2022-09-02T16:47:02.726Z,0.90
2022-09-02T16:49:31.921Z,1.42
2022-09-02T16:52:00.774Z,1.10
2022-09-02T16:54:31.419Z,1.10
2022-09-02T16:57:01.357Z,1.23
2022-09-02T16:59:31.633Z,1.50
2022-09-02T17:02:00.134Z,1.02
2022-09-02T17:04:29.466Z,0.82
2022-09-02T17:06:58.082Z,1.10
2022-09-02T17:09:26.345Z,0.85
2022-09-02T17:11:54.768Z,0.95
2022-09-02T17:14:23.261Z,0.95
2022-09-02T17:16:52.389Z,1.08
2022-09-02T17:19:21.791Z,1.00
2022-09-02T17:21:54.955Z,0.80
2022-09-02T17:24:27.954Z,1.10
2022-09-02T17:26:56.715Z,1.00
2022-09-02T17:29:48.822Z,1.23
2022-09-02T17:32:19.327Z,0.90
2022-09-02T17:34:49.927Z,0.98
2022-09-02T17:37:19.414Z,1.10
2022-09-02T17:39:51.060Z,0.90
2022-09-02T17:42:21.559Z,0.93
2022-09-02T17:44:49.932Z,1.00
2022-09-02T17:47:20.776Z,1.08
2022-09-02T17:49:49.547Z,1.00
2022-09-02T17:52:27.129Z,1.17
2022-09-02T17:54:56.100Z,1.17
2022-09-02T17:57:42.440Z,1.35
2022-09-02T18:00:17.283Z,0.90
2022-09-02T18:03:22.603Z,1.10
2022-09-02T18:06:09.427Z,1.05
2022-09-02T18:08:54.646Z,0.95
2022-09-02T18:11:23.093Z,1.10
2022-09-02T18:14:04.374Z,1.20
2022-09-02T18:16:39.222Z,1.00
2022-09-02T18:19:21.997Z,1.00
2022-09-02T18:21:58.835Z,0.90
2022-09-02T18:24:48.886Z,1.00
2022-09-02T18:27:36.850Z,1.30
2022-09-02T18:30:08.187Z,1.20
2022-09-02T18:32:52.016Z,1.15
2022-09-02T18:35:55.647Z,1.20
2022-09-02T18:39:02.748Z,1.30
2022-09-02T18:41:31.009Z,0.70
2022-09-02T18:44:36.154Z,0.90
2022-09-02T18:47:19.961Z,0.90
2022-09-02T18:49:50.939Z,1.30
2022-09-02T18:52:21.232Z,0.93
2022-09-02T18:55:00.672Z,0.95
2022-09-02T18:57:33.695Z,1.02
2022-09-02T19:00:07.661Z,1.02
2022-09-02T19:02:41.654Z,0.80
2022-09-02T19:05:18.963Z,1.10
2022-09-02T19:08:07.439Z,1.25
2022-09-02T19:10:35.967Z,1.08
2022-09-02T19:13:10.292Z,0.90
2022-09-02T19:15:39.713Z,1.05
2022-09-02T19:18:08.032Z,1.17
2022-09-02T19:20:37.836Z,0.75
2022-09-02T19:23:08.268Z,1.00
2022-09-02T19:25:38.706Z,1.20
2022-09-02T19:30:40.530Z,1.00
2022-09-02T19:33:13.746Z,1.10
2022-09-02T19:35:49.007Z,1.15
2022-09-02T19:38:17.996Z,1.17
2022-09-02T19:40:49.536Z,1.45
2022-09-02T19:43:18.615Z,1.48
2022-09-02T19:45:51.311Z,1.33
2022-09-02T19:48:20.174Z,1.33
2022-09-02T19:50:49.003Z,1.58
2022-09-02T19:53:30.143Z,1.40
2022-09-02T19:56:01.741Z,1.02
2022-09-02T19:58:30.029Z,1.65
2022-09-02T20:00:59.280Z,1.50
2022-09-02T20:03:28.829Z,1.20
2022-09-02T20:05:57.315Z,1.60
2022-09-02T20:08:31.278Z,1.40
2022-09-02T20:11:02.418Z,1.00
2022-09-02T20:13:40.304Z,1.02
2022-09-02T20:16:22.381Z,1.35
2022-09-02T20:18:53.075Z,1.70
2022-09-02T20:21:27.554Z,1.00
2022-09-02T20:24:05.112Z,1.20
2022-09-02T20:27:10.605Z,1.50
2022-09-02T20:30:05.259Z,1.33
2022-09-02T20:32:51.837Z,1.08
2022-09-02T20:35:42.023Z,1.08
2022-09-02T20:38:48.473Z,1.38
2022-09-02T20:41:51.890Z,1.10
2022-09-02T20:44:24.631Z,1.30
2022-09-02T20:47:20.127Z,1.13
2022-09-02T20:50:00.208Z,1.00
2022-09-02T20:53:00.267Z,1.10
2022-09-02T20:55:40.146Z,1.23
2022-09-02T20:58:29.906Z,0.98
2022-09-02T21:01:08.244Z,0.73
2022-09-02T21:03:48.651Z,1.20
2022-09-02T21:06:19.050Z,0.88
2022-09-02T21:08:59.763Z,1.00
2022-09-02T21:11:34.563Z,1.00
2022-09-02T21:14:13.231Z,0.90
2022-09-02T21:16:48.024Z,1.15
2022-09-02T21:19:23.404Z,1.10
2022-09-02T21:22:39.277Z,1.10
2022-09-02T21:25:12.779Z,0.82
2022-09-02T21:28:01.932Z,1.08
2022-09-02T21:30:39.663Z,1.00
2022-09-02T21:33:15.995Z,0.95
2022-09-02T21:35:47.479Z,1.00
2022-09-02T21:38:42.531Z,1.20
2022-09-02T21:41:11.055Z,1.30
2022-09-02T21:44:02.425Z,0.90
2022-09-02T21:47:01.463Z,0.98
2022-09-02T21:50:08.014Z,0.85
2022-09-02T21:53:16.978Z,0.85
2022-09-02T21:56:37.170Z,0.90
2022-09-02T21:59:24.030Z,1.98
2022-09-02T22:01:58.517Z,0.90
2022-09-02T22:04:56.075Z,1.40
2022-09-02T22:07:42.046Z,0.88
2022-09-02T22:10:11.133Z,1.00
2022-09-02T22:12:47.754Z,1.20
2022-09-02T22:15:28.067Z,0.98
2022-09-02T22:18:16.794Z,0.95
2022-09-02T22:20:45.672Z,1.30
2022-09-02T22:23:26.225Z,1.10
2022-09-02T22:26:01.451Z,1.23
2022-09-02T22:29:04.022Z,0.90
2022-09-02T22:31:35.896Z,1.17
2022-09-02T22:34:07.611Z,0.80
2022-09-02T22:36:56.659Z,0.90
2022-09-02T22:39:33.972Z,1.20
2022-09-02T22:42:20.090Z,1.20
2022-09-02T22:45:48.691Z,0.90
2022-09-02T22:48:40.190Z,1.05
2022-09-02T22:51:38.785Z,1.40
2022-09-02T22:54:07.124Z,1.10
2022-09-02T22:57:13.978Z,1.48
2022-09-02T23:00:05.947Z,1.00
2022-09-02T23:03:00.408Z,1.05
2022-09-02T23:05:53.801Z,0.95
2022-09-02T23:08:22.646Z,1.08
2022-09-02T23:11:16.481Z,1.10
2022-09-02T23:14:09.224Z,0.93
2022-09-02T23:16:55.817Z,1.10
2022-09-02T23:19:43.745Z,1.20
2022-09-02T23:22:34.288Z,1.00
2022-09-02T23:25:47.704Z,1.13
2022-09-02T23:28:31.232Z,0.82
2022-09-02T23:31:33.251Z,1.60
2022-09-02T23:34:28.927Z,1.27
2022-09-02T23:37:26.893Z,1.27
2022-09-02T23:40:01.388Z,1.00
2022-09-02T23:42:30.412Z,1.15
2022-09-02T23:45:18.588Z,1.20
2022-09-02T23:47:54.685Z,1.25
2022-09-02T23:50:27.436Z,0.90
2022-09-02T23:53:09.101Z,1.15
2022-09-02T23:56:11.155Z,1.00
2022-09-02T23:59:16.962Z,0.90
